createdAt,value
2023-02-22T00:02:27.144Z,6.92
2023-02-22T00:04:55.948Z,6.74
2023-02-22T00:07:26.581Z,6.77
2023-02-22T00:09:57.211Z,6.80
2023-02-22T00:12:27.973Z,6.70
2023-02-22T00:14:55.995Z,6.67
2023-02-22T00:17:24.357Z,6.55
2023-02-22T00:19:52.296Z,6.58
2023-02-22T00:22:20.616Z,6.50
2023-02-22T00:24:54.662Z,6.37
2023-02-22T00:27:43.739Z,6.33
2023-02-22T00:30:22.184Z,6.35
2023-02-22T00:32:53.412Z,6.31
2023-02-22T00:35:23.216Z,6.23
2023-02-22T00:37:53.257Z,6.40
2023-02-22T00:40:25.526Z,6.35
2023-02-22T00:42:58.753Z,6.28
2023-02-22T00:45:29.237Z,6.29
2023-02-22T00:48:01.031Z,6.21
2023-02-22T00:50:33.939Z,6.19
2023-02-22T00:53:04.776Z,6.20
2023-02-22T00:55:38.050Z,6.22
2023-02-22T00:58:32.118Z,6.21
2023-02-22T01:00:59.774Z,6.26
2023-02-22T01:06:32.301Z,6.18
2023-02-22T01:09:05.766Z,6.23
2023-02-22T01:11:33.486Z,6.20
2023-02-22T01:14:03.135Z,6.22
2023-02-22T01:19:22.840Z,6.10
2023-02-22T01:21:51.115Z,6.01
2023-02-22T01:24:19.560Z,6.09
2023-02-22T01:27:04.941Z,6.12
2023-02-22T01:29:38.153Z,6.09
2023-02-22T01:32:07.257Z,6.00
2023-02-22T01:34:37.202Z,5.93
2023-02-22T01:37:12.020Z,5.96
2023-02-22T01:39:40.025Z,5.98
2023-02-22T01:42:11.955Z,5.94
2023-02-22T01:44:43.138Z,5.89
2023-02-22T01:47:13.308Z,5.99
2023-02-22T01:49:51.477Z,5.97
2023-02-22T01:52:24.826Z,5.94
2023-02-22T01:55:00.594Z,5.84
2023-02-22T01:57:40.238Z,5.86
2023-02-22T02:00:21.354Z,5.82
2023-02-22T02:03:08.190Z,5.77
2023-02-22T02:05:41.483Z,5.72
2023-02-22T02:08:17.841Z,5.56
2023-02-22T02:10:47.590Z,5.53
2023-02-22T02:13:23.643Z,5.54
2023-02-22T02:16:04.387Z,5.46
2023-02-22T02:18:32.791Z,5.53
2023-02-22T02:21:39.906Z,5.52
2023-02-22T02:24:42.688Z,5.64
2023-02-22T02:27:15.217Z,5.63
2023-02-22T02:30:19.262Z,5.66
2023-02-22T02:32:54.882Z,5.66
2023-02-22T02:35:36.529Z,5.69
2023-02-22T02:38:35.476Z,5.70
2023-02-22T02:41:28.081Z,5.79
2023-02-22T02:44:04.944Z,5.69
2023-02-22T02:46:44.467Z,5.66
2023-02-22T02:49:31.953Z,5.57
2023-02-22T02:52:01.929Z,5.49
2023-02-22T02:54:33.988Z,5.54
2023-02-22T02:57:05.562Z,5.44
2023-02-22T02:59:44.846Z,5.50
2023-02-22T03:02:38.580Z,5.48
2023-02-22T03:05:28.876Z,5.44
2023-02-22T03:08:08.184Z,5.37
2023-02-22T03:10:52.899Z,5.49
2023-02-22T03:13:32.848Z,5.49
2023-02-22T03:16:28.232Z,5.44
2023-02-22T03:19:07.384Z,5.55
2023-02-22T03:21:51.584Z,5.50
2023-02-22T03:24:33.016Z,5.54
2023-02-22T03:27:09.537Z,5.72
2023-02-22T03:29:48.127Z,5.71
2023-02-22T03:32:20.169Z,5.69
2023-02-22T03:34:54.738Z,5.58
2023-02-22T03:37:33.943Z,5.67
2023-02-22T03:40:13.849Z,5.62
2023-02-22T03:42:44.520Z,5.43
2023-02-22T03:45:16.346Z,5.38
2023-02-22T03:47:51.307Z,5.25
2023-02-22T03:50:22.592Z,5.54
2023-02-22T03:52:52.126Z,5.61
2023-02-22T03:55:19.882Z,5.47
2023-02-22T03:57:51.748Z,5.40
2023-02-22T04:00:26.728Z,5.57
2023-02-22T04:02:54.776Z,5.71
2023-02-22T04:05:27.558Z,5.60
2023-02-22T04:08:03.389Z,5.64
2023-02-22T04:10:31.659Z,5.81
2023-02-22T04:13:00.969Z,5.83
2023-02-22T04:15:28.731Z,5.72
2023-02-22T04:17:57.029Z,5.69
2023-02-22T04:20:28.559Z,5.58
2023-02-22T04:22:58.542Z,5.51
2023-02-22T04:25:27.073Z,5.40
2023-02-22T04:27:58.051Z,5.42
2023-02-22T04:30:31.603Z,5.35
2023-02-22T04:33:00.445Z,5.42
2023-02-22T04:35:28.801Z,5.31
2023-02-22T04:38:00.644Z,5.21
2023-02-22T04:40:28.499Z,5.09
2023-02-22T04:42:56.632Z,5.04
2023-02-22T04:45:27.604Z,5.02
2023-02-22T04:48:08.664Z,4.93
2023-02-22T04:50:36.590Z,4.92
2023-02-22T04:53:10.526Z,4.85
2023-02-22T04:55:38.395Z,4.79
2023-02-22T04:58:09.166Z,4.88
2023-02-22T05:00:40.865Z,4.80
2023-02-22T05:03:08.829Z,4.78
2023-02-22T05:05:37.591Z,4.83
2023-02-22T05:08:08.820Z,4.85
2023-02-22T05:10:42.077Z,4.85
2023-02-22T05:13:10.680Z,4.85
2023-02-22T05:15:38.619Z,4.69
2023-02-22T05:18:09.099Z,4.65
2023-02-22T05:20:44.704Z,4.77
2023-02-22T05:23:16.636Z,4.73
2023-02-22T05:25:45.237Z,4.69
2023-02-22T05:28:22.403Z,4.75
2023-02-22T05:30:55.109Z,4.56
2023-02-22T05:36:09.353Z,4.44
2023-02-22T05:38:43.842Z,4.49
2023-02-22T05:41:12.509Z,4.60
2023-02-22T05:43:41.422Z,4.61
2023-02-22T05:46:09.643Z,4.58
2023-02-22T05:48:45.432Z,4.62
2023-02-22T05:51:13.437Z,4.59
2023-02-22T05:53:47.317Z,4.63
2023-02-22T05:56:16.888Z,4.56
2023-02-22T05:58:45.259Z,4.44
2023-02-22T06:01:12.807Z,4.40
2023-02-22T06:03:40.353Z,4.36
2023-02-22T06:06:08.376Z,4.43
2023-02-22T06:08:35.964Z,4.41
2023-02-22T06:11:05.337Z,4.43
2023-02-22T06:13:35.437Z,4.42
2023-02-22T06:16:03.125Z,4.45
2023-02-22T06:18:31.334Z,4.61
2023-02-22T06:20:59.377Z,4.67
2023-02-22T06:23:27.547Z,4.58
2023-02-22T06:25:55.419Z,4.54
2023-02-22T06:28:28.559Z,4.57
2023-02-22T06:30:56.540Z,4.54
2023-02-22T06:33:24.087Z,4.56
2023-02-22T06:35:51.658Z,4.61
2023-02-22T06:38:25.796Z,4.56
2023-02-22T06:40:55.156Z,4.45
2023-02-22T06:43:24.890Z,4.47
2023-02-22T06:45:52.755Z,4.55
2023-02-22T06:48:20.602Z,4.44
2023-02-22T06:50:48.362Z,4.55
2023-02-22T06:53:16.606Z,4.58
2023-02-22T06:55:44.295Z,4.80
2023-02-22T06:58:11.937Z,4.65
2023-02-22T07:00:40.932Z,4.65
2023-02-22T07:03:08.532Z,4.77
2023-02-22T07:05:36.391Z,4.76
2023-02-22T07:08:06.221Z,4.70
2023-02-22T07:10:35.756Z,4.75
2023-02-22T07:13:03.642Z,4.75
2023-02-22T07:15:32.761Z,4.69
2023-02-22T07:18:02.609Z,4.62
2023-02-22T07:20:31.738Z,4.73
2023-02-22T07:22:59.603Z,4.61
2023-02-22T07:25:27.462Z,4.72
2023-02-22T07:27:55.079Z,4.71
2023-02-22T07:30:26.312Z,4.94
2023-02-22T07:33:02.189Z,4.97
2023-02-22T07:35:33.534Z,4.86
2023-02-22T07:38:01.140Z,5.16
2023-02-22T07:40:29.600Z,5.27
2023-02-22T07:43:02.728Z,5.38
2023-02-22T07:45:34.644Z,5.28
2023-02-22T07:48:04.327Z,5.62
2023-02-22T07:50:44.627Z,5.60
2023-02-22T07:53:20.394Z,5.88
2023-02-22T07:55:50.796Z,5.99
2023-02-22T07:58:23.457Z,6.13
2023-02-22T08:00:51.296Z,6.25
2023-02-22T08:03:21.040Z,6.31
2023-02-22T08:05:54.015Z,6.27
2023-02-22T08:08:22.105Z,6.23
2023-02-22T08:10:50.379Z,6.66
2023-02-22T08:13:19.115Z,6.84
2023-02-22T08:15:47.554Z,6.89
2023-02-22T08:18:18.298Z,6.94
2023-02-22T08:20:47.790Z,7.03
2023-02-22T08:23:17.592Z,7.10
2023-02-22T08:25:51.133Z,7.48
2023-02-22T08:28:22.867Z,7.18
2023-02-22T08:30:53.899Z,7.48
2023-02-22T08:33:22.026Z,7.10
2023-02-22T08:35:50.452Z,7.16
2023-02-22T08:38:22.564Z,7.47
2023-02-22T08:40:50.903Z,7.09
2023-02-22T08:43:19.611Z,7.40
2023-02-22T08:45:47.718Z,7.11
2023-02-22T08:48:16.046Z,7.38
2023-02-22T08:50:44.286Z,7.43
2023-02-22T08:53:14.910Z,7.67
2023-02-22T08:55:44.994Z,7.62
2023-02-22T08:58:14.270Z,7.77
2023-02-22T09:00:44.559Z,7.14
2023-02-22T09:03:14.142Z,7.10
2023-02-22T09:05:44.031Z,7.16
2023-02-22T09:08:11.865Z,7.39
2023-02-22T09:10:40.634Z,7.41
2023-02-22T09:13:10.043Z,7.05
2023-02-22T09:15:37.687Z,7.33
2023-02-22T09:18:08.372Z,7.27
2023-02-22T09:20:36.820Z,7.21
2023-02-22T09:23:09.726Z,7.50
2023-02-22T09:25:38.681Z,7.40
2023-02-22T09:28:06.595Z,7.28
2023-02-22T09:30:44.990Z,7.25
2023-02-22T09:33:15.200Z,7.43
2023-02-22T09:35:46.284Z,7.74
2023-02-22T09:38:16.142Z,8.16
2023-02-22T09:40:49.344Z,8.34
2023-02-22T09:43:27.680Z,7.92
2023-02-22T09:46:12.038Z,7.76
2023-02-22T09:48:57.999Z,8.17
2023-02-22T09:51:35.683Z,7.64
2023-02-22T09:54:07.947Z,7.87
2023-02-22T09:56:36.343Z,7.95
2023-02-22T09:59:08.719Z,8.02
2023-02-22T10:01:43.762Z,8.74
2023-02-22T10:04:19.397Z,8.67
2023-02-22T10:07:05.914Z,9.14
2023-02-22T10:09:37.566Z,9.28
2023-02-22T10:12:12.922Z,9.85
2023-02-22T10:14:52.071Z,10.00
2023-02-22T10:17:30.806Z,9.79
2023-02-22T10:20:13.389Z,9.84
2023-02-22T10:22:55.162Z,9.57
2023-02-22T10:25:26.739Z,9.91
2023-02-22T10:27:58.672Z,9.73
2023-02-22T10:30:33.355Z,9.70
2023-02-22T10:33:09.652Z,9.89
2023-02-22T10:35:41.071Z,10.47
2023-02-22T10:38:17.420Z,10.70
2023-02-22T10:40:50.410Z,11.04
2023-02-22T10:43:18.111Z,10.88
2023-02-22T10:45:45.752Z,10.37
2023-02-22T10:48:18.397Z,10.31
2023-02-22T10:50:47.456Z,10.79
2023-02-22T10:53:16.617Z,11.01
2023-02-22T10:56:07.585Z,11.22
2023-02-22T10:58:42.543Z,11.53
2023-02-22T11:01:24.680Z,12.00
2023-02-22T11:04:02.502Z,12.12
2023-02-22T11:06:30.895Z,12.04
2023-02-22T11:09:13.602Z,11.67
2023-02-22T11:11:43.715Z,11.83
2023-02-22T11:14:12.130Z,11.75
2023-02-22T11:16:43.451Z,11.28
2023-02-22T11:19:23.945Z,11.33
2023-02-22T11:21:54.179Z,11.45
2023-02-22T11:24:30.419Z,11.66
2023-02-22T11:27:03.220Z,11.71
2023-02-22T11:29:33.753Z,11.82
2023-02-22T11:32:05.086Z,11.59
2023-02-22T11:34:38.397Z,11.39
2023-02-22T11:37:34.534Z,11.75
2023-02-22T11:40:12.221Z,11.70
2023-02-22T11:42:40.071Z,12.09
2023-02-22T11:45:13.851Z,11.87
2023-02-22T11:47:57.372Z,11.93
2023-02-22T11:50:35.009Z,11.83
2023-02-22T11:53:17.360Z,12.06
2023-02-22T11:55:52.770Z,12.19
2023-02-22T11:58:33.186Z,12.41
2023-02-22T12:01:09.248Z,12.61
2023-02-22T12:03:55.269Z,12.63
2023-02-22T12:06:35.580Z,12.54
2023-02-22T12:09:13.946Z,12.70
2023-02-22T12:11:58.155Z,12.61
2023-02-22T12:14:35.441Z,12.71
2023-02-22T12:17:27.052Z,12.90
2023-02-22T12:19:59.749Z,13.01
2023-02-22T12:22:33.357Z,13.04
2023-02-22T12:25:09.919Z,13.09
2023-02-22T12:27:44.647Z,12.86
2023-02-22T12:30:19.064Z,12.99
2023-02-22T12:32:51.651Z,13.07
2023-02-22T12:35:24.355Z,13.31
2023-02-22T12:38:02.244Z,13.47
2023-02-22T12:40:37.383Z,13.16
2023-02-22T12:43:16.515Z,13.25
2023-02-22T12:45:48.180Z,13.41
2023-02-22T12:48:27.301Z,13.52
2023-02-22T12:51:00.770Z,13.34
2023-02-22T12:53:41.964Z,13.52
2023-02-22T12:56:20.142Z,13.40
2023-02-22T12:58:56.906Z,13.57
2023-02-22T13:04:21.750Z,13.84
2023-02-22T13:07:19.756Z,13.75
2023-02-22T13:10:15.069Z,14.12
2023-02-22T13:12:55.714Z,14.27
2023-02-22T13:15:32.471Z,14.62
2023-02-22T13:18:17.659Z,14.61
2023-02-22T13:20:58.257Z,14.84
2023-02-22T13:23:43.587Z,15.04
2023-02-22T13:26:26.981Z,15.11
2023-02-22T13:28:59.788Z,15.23
2023-02-22T13:31:43.727Z,15.19
2023-02-22T13:34:30.979Z,15.15
2023-02-22T13:37:17.581Z,14.78
2023-02-22T13:40:01.146Z,14.73
2023-02-22T13:42:55.298Z,14.75
2023-02-22T13:45:56.049Z,14.51
2023-02-22T13:48:49.747Z,14.55
2023-02-22T13:51:35.411Z,14.47
2023-02-22T13:54:11.170Z,14.65
2023-02-22T13:56:43.654Z,14.80
2023-02-22T13:59:25.592Z,14.96
2023-02-22T14:01:54.842Z,15.02
2023-02-22T14:04:39.049Z,14.99
2023-02-22T14:07:54.886Z,14.60
2023-02-22T14:10:50.038Z,14.63
2023-02-22T14:13:19.539Z,14.59
2023-02-22T14:16:24.138Z,14.25
2023-02-22T14:19:06.398Z,14.34
2023-02-22T14:21:38.058Z,14.33
2023-02-22T14:24:14.916Z,14.44
2023-02-22T14:27:00.080Z,14.50
2023-02-22T14:29:28.073Z,14.47
2023-02-22T14:32:10.483Z,14.24
2023-02-22T14:34:52.724Z,14.00
2023-02-22T14:37:27.096Z,13.98
2023-02-22T14:40:12.746Z,13.98
2023-02-22T14:42:45.132Z,14.01
2023-02-22T14:45:21.931Z,13.99
2023-02-22T14:48:03.194Z,14.03
2023-02-22T14:50:44.019Z,14.09
2023-02-22T14:53:25.788Z,14.01
2023-02-22T14:55:58.643Z,13.94
2023-02-22T14:58:35.434Z,13.88
2023-02-22T15:01:20.080Z,13.82
2023-02-22T15:04:01.964Z,13.72
2023-02-22T15:06:35.293Z,13.64
2023-02-22T15:09:11.684Z,13.59
2023-02-22T15:11:39.410Z,13.54
2023-02-22T15:14:25.687Z,13.51
2023-02-22T15:16:55.916Z,13.38
2023-02-22T15:19:27.852Z,13.31
2023-02-22T15:21:57.119Z,13.31
2023-02-22T15:24:27.735Z,13.31
2023-02-22T15:27:04.427Z,13.22
2023-02-22T15:29:37.105Z,13.25
2023-02-22T15:32:20.124Z,13.24
2023-02-22T15:34:49.094Z,13.15
2023-02-22T15:37:25.353Z,13.19
2023-02-22T15:39:59.139Z,13.08
2023-02-22T15:42:30.391Z,13.08
2023-02-22T15:44:58.587Z,13.02
2023-02-22T15:47:27.926Z,13.00
2023-02-22T15:50:21.177Z,12.96
2023-02-22T15:52:53.284Z,12.97
2023-02-22T15:55:25.761Z,12.88
2023-02-22T15:57:53.847Z,12.82
2023-02-22T16:00:30.675Z,12.77
2023-02-22T16:02:59.051Z,12.64
2023-02-22T16:05:37.987Z,12.54
2023-02-22T16:08:15.586Z,12.48
2023-02-22T16:10:54.192Z,12.40
2023-02-22T16:13:31.573Z,12.36
2023-02-22T16:16:02.138Z,12.37
2023-02-22T16:18:33.682Z,12.33
2023-02-22T16:21:06.499Z,12.27
2023-02-22T16:23:45.304Z,12.11
2023-02-22T16:26:26.464Z,12.16
2023-02-22T16:28:56.148Z,12.10
2023-02-22T16:31:25.752Z,12.04
2023-02-22T16:33:53.962Z,11.94
2023-02-22T16:36:36.860Z,11.92
2023-02-22T16:39:08.075Z,11.77
2023-02-22T16:41:36.163Z,11.64
2023-02-22T16:44:07.596Z,11.61
2023-02-22T16:46:36.615Z,11.50
2023-02-22T16:49:04.983Z,11.59
2023-02-22T16:54:44.461Z,11.46
2023-02-22T16:57:20.380Z,11.37
2023-02-22T16:59:52.067Z,11.26
2023-02-22T17:02:20.557Z,11.18
2023-02-22T17:04:52.610Z,11.15
2023-02-22T17:07:29.804Z,11.16
2023-02-22T17:09:58.261Z,11.16
2023-02-22T17:12:26.681Z,11.15
2023-02-22T17:14:56.770Z,11.14
2023-02-22T17:17:26.524Z,11.12
2023-02-22T17:19:55.137Z,11.16
2023-02-22T17:22:27.998Z,11.05
2023-02-22T17:24:55.682Z,11.02
2023-02-22T17:27:25.123Z,10.99
2023-02-22T17:29:52.887Z,10.98
2023-02-22T17:32:20.711Z,11.00
2023-02-22T17:34:48.347Z,11.01
2023-02-22T17:37:16.024Z,10.99
2023-02-22T17:39:47.746Z,10.96
2023-02-22T17:42:15.496Z,10.99
2023-02-22T17:44:45.179Z,10.94
2023-02-22T17:47:12.984Z,10.94
2023-02-22T17:49:46.182Z,10.94
2023-02-22T17:52:15.602Z,10.92
2023-02-22T17:54:46.471Z,11.10
2023-02-22T17:57:14.112Z,10.94
2023-02-22T17:59:42.207Z,10.90
2023-02-22T18:02:10.491Z,10.74
2023-02-22T18:04:39.557Z,10.66
2023-02-22T18:07:09.279Z,10.61
2023-02-22T18:09:39.423Z,10.61
2023-02-22T18:12:16.151Z,10.57
2023-02-22T18:17:31.435Z,10.47
2023-02-22T18:20:31.102Z,10.41
2023-02-22T18:23:00.320Z,10.39
2023-02-22T18:25:28.677Z,10.40
2023-02-22T18:27:58.048Z,10.45
2023-02-22T18:30:25.884Z,10.48
2023-02-22T18:32:53.891Z,10.44
2023-02-22T18:35:22.207Z,10.47
2023-02-22T18:37:51.746Z,10.51
2023-02-22T18:40:25.044Z,10.56
2023-02-22T18:42:52.804Z,10.52
2023-02-22T18:45:22.849Z,10.53
2023-02-22T18:47:56.585Z,10.48
2023-02-22T18:50:28.846Z,10.45
2023-02-22T18:52:56.681Z,10.49
2023-02-22T18:58:35.015Z,10.52
2023-02-22T19:01:14.096Z,10.51
2023-02-22T19:03:42.829Z,10.52
2023-02-22T19:06:19.047Z,10.52
2023-02-22T19:11:25.490Z,10.47
2023-02-22T19:14:31.810Z,10.47
2023-02-22T19:17:16.991Z,10.37
2023-02-22T19:19:45.098Z,10.37
2023-02-22T19:22:14.993Z,10.39
2023-02-22T19:24:51.530Z,10.41
2023-02-22T19:27:19.472Z,10.15
2023-02-22T19:29:53.903Z,10.05
2023-02-22T19:32:23.847Z,10.04
2023-02-22T19:35:01.985Z,10.07
2023-02-22T19:37:41.213Z,10.07
2023-02-22T19:40:10.918Z,10.10
2023-02-22T19:42:40.937Z,10.05
2023-02-22T19:45:10.342Z,10.01
2023-02-22T19:47:41.199Z,9.99
2023-02-22T19:50:12.078Z,9.90
2023-02-22T19:52:40.020Z,9.93
2023-02-22T19:55:13.233Z,9.93
2023-02-22T19:57:41.213Z,9.95
2023-02-22T20:03:09.376Z,9.88
2023-02-22T20:05:40.612Z,9.82
2023-02-22T20:08:09.610Z,9.79
2023-02-22T20:10:40.605Z,9.77
2023-02-22T20:13:08.361Z,9.71
2023-02-22T20:15:38.121Z,9.74
2023-02-22T20:18:07.151Z,9.74
2023-02-22T20:20:37.813Z,9.79
2023-02-22T20:23:07.090Z,9.77
2023-02-22T20:25:36.523Z,9.73
2023-02-22T20:28:07.895Z,9.75
2023-02-22T20:33:30.133Z,9.78
2023-02-22T20:35:57.971Z,9.79
2023-02-22T20:38:26.481Z,9.82
2023-02-22T20:40:54.848Z,9.78
2023-02-22T20:43:24.079Z,9.81
2023-02-22T20:45:54.653Z,9.82
2023-02-22T20:48:28.675Z,9.86
2023-02-22T20:50:56.581Z,9.91
2023-02-22T20:53:25.498Z,9.86
2023-02-22T20:55:59.122Z,9.86
2023-02-22T20:58:30.350Z,9.88
2023-02-22T21:01:05.230Z,9.82
2023-02-22T21:03:42.686Z,9.90
2023-02-22T21:06:15.426Z,9.82
2023-02-22T21:08:47.237Z,9.90
2023-02-22T21:11:17.996Z,9.90
2023-02-22T21:13:46.228Z,9.91
2023-02-22T21:16:32.222Z,9.94
2023-02-22T21:19:21.055Z,9.85
2023-02-22T21:21:48.946Z,9.79
2023-02-22T21:24:26.342Z,9.79
2023-02-22T21:26:55.755Z,9.77
2023-02-22T21:29:23.894Z,9.77
2023-02-22T21:31:51.804Z,9.78
2023-02-22T21:34:23.245Z,9.81
2023-02-22T21:36:59.659Z,9.79
2023-02-22T21:39:31.182Z,9.80
2023-02-22T21:42:01.935Z,9.91
2023-02-22T21:44:31.382Z,9.86
2023-02-22T21:47:00.219Z,9.91
2023-02-22T21:49:30.178Z,9.85
2023-02-22T21:51:58.302Z,9.91
2023-02-22T21:54:28.482Z,9.93
2023-02-22T21:56:56.260Z,9.94
2023-02-22T21:59:24.402Z,9.95
2023-02-22T22:01:58.498Z,9.99
2023-02-22T22:04:32.444Z,9.86
2023-02-22T22:07:01.483Z,9.78
2023-02-22T22:09:34.905Z,9.77
2023-02-22T22:12:07.517Z,9.76
2023-02-22T22:14:36.722Z,9.70
2023-02-22T22:17:09.595Z,9.72
2023-02-22T22:19:44.341Z,9.68
2023-02-22T22:22:36.658Z,9.71
2023-02-22T22:25:04.829Z,9.89
2023-02-22T22:27:40.647Z,9.88
2023-02-22T22:30:10.797Z,9.88
2023-02-22T22:32:38.515Z,9.91
2023-02-22T22:35:15.914Z,9.88
2023-02-22T22:37:44.529Z,10.05
2023-02-22T22:40:24.380Z,9.92
2023-02-22T22:42:52.127Z,9.92
2023-02-22T22:45:20.361Z,9.90
2023-02-22T22:47:48.595Z,9.93
2023-02-22T22:50:19.587Z,10.06
2023-02-22T22:52:48.892Z,10.02
2023-02-22T22:55:16.735Z,10.03
2023-02-22T22:57:44.334Z,10.00
2023-02-22T23:00:28.328Z,10.00
2023-02-22T23:02:56.214Z,10.04
2023-02-22T23:05:27.966Z,9.97
2023-02-22T23:07:59.270Z,10.00
2023-02-22T23:10:28.484Z,10.09
2023-02-22T23:12:57.091Z,10.06
2023-02-22T23:15:25.756Z,10.15
2023-02-22T23:17:56.053Z,10.20
2023-02-22T23:20:26.475Z,10.23
2023-02-22T23:22:59.177Z,10.18
2023-02-22T23:25:26.805Z,10.07
2023-02-22T23:27:55.156Z,10.05
2023-02-22T23:30:23.874Z,10.09
2023-02-22T23:32:56.748Z,10.04
2023-02-22T23:35:25.002Z,10.05
2023-02-22T23:37:53.923Z,10.04
2023-02-22T23:40:25.954Z,10.07
2023-02-22T23:42:54.843Z,10.07
2023-02-22T23:45:24.662Z,10.12
2023-02-22T23:47:54.977Z,10.06
2023-02-22T23:50:24.558Z,10.14
2023-02-22T23:52:58.430Z,10.12
2023-02-22T23:55:32.661Z,10.07
2023-02-22T23:58:00.493Z,10.09
